createdAt,value
2022-08-17T00:00:34.789Z,20
2022-08-17T00:28:53.317Z,20
2022-08-17T00:57:37.577Z,21
2022-08-17T01:26:16.258Z,21
2022-08-17T01:55:00.009Z,22
2022-08-17T02:23:45.082Z,23
2022-08-17T02:52:41.994Z,21
2022-08-17T03:20:48.743Z,21
2022-08-17T03:49:36.202Z,15
2022-08-17T04:18:26.152Z,21
2022-08-17T04:46:52.863Z,21
2022-08-17T05:15:26.949Z,21
2022-08-17T05:44:07.804Z,21
2022-08-17T06:12:49.204Z,15
2022-08-17T06:41:15.322Z,15
2022-08-17T07:09:50.958Z,12
2022-08-17T07:38:35.789Z,14
2022-08-17T08:07:16.949Z,14
2022-08-17T08:35:47.173Z,20
2022-08-17T09:04:40.729Z,21
2022-08-17T09:33:03.517Z,21
2022-08-17T10:01:41.791Z,21
2022-08-17T10:30:16.496Z,21
2022-08-17T10:58:47.153Z,15
2022-08-17T11:27:36.790Z,15
2022-08-17T11:56:06.957Z,14
2022-08-17T12:24:41.510Z,14
2022-08-17T12:53:10.263Z,13
2022-08-17T13:21:48.889Z,13
2022-08-17T13:50:27.533Z,13
2022-08-17T14:19:11.743Z,13
2022-08-17T14:47:34.820Z,13
2022-08-17T15:16:05.398Z,12
2022-08-17T15:44:41.291Z,12
2022-08-17T16:13:25.514Z,22
2022-08-17T16:42:00.652Z,14
2022-08-17T17:10:26.831Z,15
2022-08-17T17:39:03.411Z,15
2022-08-17T18:07:32.137Z,15
2022-08-17T18:36:08.091Z,14
2022-08-17T19:04:50.551Z,15
2022-08-17T19:33:34.287Z,14
2022-08-17T20:02:03.711Z,14
2022-08-17T20:30:39.672Z,14
2022-08-17T20:59:17.416Z,12
2022-08-17T21:27:50.503Z,14
2022-08-17T21:56:16.037Z,20
2022-08-17T22:24:39.599Z,15
2022-08-17T22:53:17.129Z,15
2022-08-17T23:21:57.646Z,15
2022-08-17T23:50:30.982Z,15
